Hordafor III — LLVC — position and weather

sailwx.info

Track history (hours):
 
Tides and Currents Weather Stations Pressure Air Temp Water Temp Dewpoint Dewpoint Depression Visibility Wind Speed Wind Dir Waves Ship Positions

Hordafor III

Last reported at 2014-Dec-21 19:33 UTC. Time now 2014-Dec-21 20:10 UTC.
Position N 59°27' E 005°14'.

Length 50 m; draft 5.2 m.

Type: Ship. MMSI: 258044000.

Date/timePositionNaut miles runAvg speedWind from/ knotsBaromVisibWave heightAir tempDewpointWater temp
2014-Dec-21 19:33N 59°27' E 005°14'1510.9
2014-Dec-21 18:12N 59°13' E 005°21'710.6
2014-Dec-21 17:34N 59°06' E 005°22'40 9.4
2014-Dec-21 13:19N 58°28' E 005°45'7 8.8
2014-Dec-21 12:34N 58°24' E 005°55'9 8.6
2014-Dec-21 11:34N 58°18' E 006°07'130 3.7
2014-Dec-20 00:10N 57°36' E 009°59'0 0.0
2014-Dec-19 23:32N 57°36' E 009°59'0 0.0
2014-Dec-19 22:33N 57°36' E 009°59'0 0.0
2014-Dec-19 21:31N 57°36' E 009°59'0 0.0
2014-Dec-19 00:33N 57°36' E 009°59'0 0.0
2014-Dec-18 23:33N 57°36' E 009°59'0 0.0
2014-Dec-18 22:33N 57°36' E 009°59'129 3.0
2014-Dec-17 03:31N 58°17' E 006°09'1010.3
2014-Dec-17 02:33N 58°23' E 005°55'1110.5
2014-Dec-17 01:32N 58°31' E 005°41'2110.6
2014-Dec-16 23:32N 58°50' E 005°22'1110.7
2014-Dec-16 22:33N 59°00' E 005°18'1010.3
2014-Dec-16 21:34N 59°10' E 005°20'1211.3
2014-Dec-16 20:32N 59°22' E 005°18'  
2014-Dec-13 00:33N 64°51' E 011°12'10 9.8
2014-Dec-12 23:33N 64°57' E 011°29'1110.3
2014-Dec-12 22:31N 65°05' E 011°46'8210.0
2014-Dec-12 14:22N 66°21' E 012°57'1010.1
2014-Dec-12 13:20N 66°32' E 012°58'47 9.9
2014-Dec-12 08:32N 67°11' E 014°05'1110.7
2014-Dec-12 07:33N 67°20' E 014°20'9 9.2
2014-Dec-12 06:33N 67°29' E 014°23'11 9.9
2014-Dec-12 05:29N 67°39' E 014°18'  
Track history (hours):
 
Tides and Currents Weather Stations Pressure Air Temp Water Temp Dewpoint Dewpoint Depression Visibility Wind Speed Wind Dir Waves Ship Positions

Hordafor III

Last reported at 2014-Dec-21 19:33 UTC. Time now 2014-Dec-21 20:10 UTC.
Position N 59°27' E 005°14'.

Length 50 m; draft 5.2 m.

Type: Ship. MMSI: 258044000.

Date/timePositionNaut miles runAvg speedWind from/ knotsBaromVisibWave heightAir tempDewpointWater temp
2014-Dec-21 19:33N 59°27' E 005°14'1510.9
2014-Dec-21 18:12N 59°13' E 005°21'710.6
2014-Dec-21 17:34N 59°06' E 005°22'40 9.4
2014-Dec-21 13:19N 58°28' E 005°45'7 8.8
2014-Dec-21 12:34N 58°24' E 005°55'9 8.6
2014-Dec-21 11:34N 58°18' E 006°07'130 3.7
2014-Dec-20 00:10N 57°36' E 009°59'0 0.0
2014-Dec-19 23:32N 57°36' E 009°59'0 0.0
2014-Dec-19 22:33N 57°36' E 009°59'0 0.0
2014-Dec-19 21:31N 57°36' E 009°59'0 0.0
2014-Dec-19 00:33N 57°36' E 009°59'0 0.0
2014-Dec-18 23:33N 57°36' E 009°59'0 0.0
2014-Dec-18 22:33N 57°36' E 009°59'129 3.0
2014-Dec-17 03:31N 58°17' E 006°09'1010.3
2014-Dec-17 02:33N 58°23' E 005°55'1110.5
2014-Dec-17 01:32N 58°31' E 005°41'2110.6
2014-Dec-16 23:32N 58°50' E 005°22'1110.7
2014-Dec-16 22:33N 59°00' E 005°18'1010.3
2014-Dec-16 21:34N 59°10' E 005°20'1211.3
2014-Dec-16 20:32N 59°22' E 005°18'  
2014-Dec-13 00:33N 64°51' E 011°12'10 9.8
2014-Dec-12 23:33N 64°57' E 011°29'1110.3
2014-Dec-12 22:31N 65°05' E 011°46'8210.0
2014-Dec-12 14:22N 66°21' E 012°57'1010.1
2014-Dec-12 13:20N 66°32' E 012°58'47 9.9
2014-Dec-12 08:32N 67°11' E 014°05'1110.7
2014-Dec-12 07:33N 67°20' E 014°20'9 9.2
2014-Dec-12 06:33N 67°29' E 014°23'11 9.9
2014-Dec-12 05:29N 67°39' E 014°18'  

Dump ship's entire track history